Time;durP1;ratioP1;P1;durP2;ratioP2;P2;SDS_P1;SDS_P2;PMS_P1;PMS_P2;Temp;Humidity;BMP_temperature;BMP_pressure;BME280_temperature;BME280_humidity;BME280_pressure;Samples;Min_cycle;Max_cycle;Signal;HPM_P1;HPM_P2
2024/01/13 00:00:04;;;;;;;2.07;1.97;;;;;;;-0.52;62.67;145937.78;5091351;28;20184;-55
2024/01/13 00:02:31;;;;;;;2.03;1.93;;;;;;;-0.37;62.55;145974.06;5091457;28;20180;-56
2024/01/13 00:04:59;;;;;;;2.53;2.43;;;;;;;-0.48;62.73;145947.78;5091493;28;20191;-55
2024/01/13 00:07:28;;;;;;;1.90;1.80;;;;;;;-0.52;63.04;145939.03;5091390;28;20180;-57
2024/01/13 00:09:55;;;;;;;2.30;2.20;;;;;;;-0.22;63.35;146011.66;5091330;28;20184;-54
2024/01/13 00:12:22;;;;;;;2.00;1.90;;;;;;;-0.11;61.49;146040.47;5091572;28;20200;-55
2024/01/13 00:14:49;;;;;;;1.60;1.50;;;;;;;-0.23;58.73;146010.41;5091353;28;20188;-56
2024/01/13 00:17:16;;;;;;;1.53;1.50;;;;;;;-0.32;59.58;145987.88;5091260;28;20188;-56
2024/01/13 00:19:43;;;;;;;2.03;1.93;;;;;;;-0.19;60.51;146019.16;5092690;28;20206;-57
2024/01/13 00:22:12;;;;;;;1.70;1.60;;;;;;;-0.12;60.89;146036.69;5095242;28;20229;-55
2024/01/13 00:24:39;;;;;;;1.90;1.80;;;;;;;-0.29;60.47;145994.09;5094940;28;20180;-55
2024/01/13 00:27:06;;;;;;;1.50;1.40;;;;;;;-0.08;59.24;146046.72;5095419;28;20196;-56
2024/01/13 00:29:33;;;;;;;1.63;1.60;;;;;;;-0.16;59.02;146026.66;5095142;28;20265;-53
2024/01/13 00:32:00;;;;;;;1.53;1.43;;;;;;;-0.06;58.44;146051.75;5094748;28;20212;-55
2024/01/13 00:34:27;;;;;;;2.77;1.63;;;;;;;0.03;59.31;146073.03;5094726;28;20180;-55
2024/01/13 00:36:54;;;;;;;3.93;1.70;;;;;;;-0.10;60.38;146041.72;5095093;28;20268;-55
2024/01/13 00:39:23;;;;;;;2.33;1.70;;;;;;;-0.10;58.87;146041.72;5094669;28;20188;-55
2024/01/13 00:41:50;;;;;;;1.67;1.57;;;;;;;0.02;59.90;146071.78;5095135;28;20612;-55
2024/01/13 00:44:17;;;;;;;1.40;1.27;;;;;;;-0.17;60.47;146024.19;5094543;28;20185;-56
2024/01/13 00:46:44;;;;;;;1.53;1.40;;;;;;;-0.02;60.97;146061.75;5094720;28;20646;-55
2024/01/13 00:49:11;;;;;;;1.67;1.57;;;;;;;-0.11;60.93;146039.22;5094434;28;20191;-56
2024/01/13 00:51:38;;;;;;;2.23;1.50;;;;;;;0.08;61.43;146086.81;5094354;28;20184;-55
2024/01/13 00:54:06;;;;;;;2.40;1.50;;;;;;;0.05;61.40;146078.03;5094523;28;20599;-57
2024/01/13 00:56:35;;;;;;;2.87;1.70;;;;;;;0.11;60.90;146094.34;5094380;28;20263;-57
2024/01/13 00:59:02;;;;;;;3.57;1.77;;;;;;;0.17;60.77;146108.13;5094199;28;20188;-55
2024/01/13 01:01:29;;;;;;;1.70;1.60;;;;;;;0.02;61.51;146071.78;5094293;28;20192;-56
2024/01/13 01:03:56;;;;;;;2.73;1.83;;;;;;;0.11;61.18;146094.34;5094242;28;20184;-55
2024/01/13 01:06:23;;;;;;;1.87;1.77;;;;;;;0.12;61.47;146096.84;5094153;28;20188;-55
2024/01/13 01:08:50;;;;;;;1.83;1.73;;;;;;;0.05;62.02;146079.28;5094511;28;20195;-55
2024/01/13 01:11:17;;;;;;;1.70;1.60;;;;;;;0.00;62.88;146066.78;5094395;28;20276;-55
2024/01/13 01:13:46;;;;;;;2.10;2.00;;;;;;;-0.03;63.12;146059.25;5094398;28;20212;-56
2024/01/13 01:16:13;;;;;;;4.50;2.20;;;;;;;-0.10;63.47;146041.72;5094229;28;20237;-55
2024/01/13 01:18:40;;;;;;;2.10;2.00;;;;;;;-0.09;63.81;146045.50;5093919;28;20236;-57
2024/01/13 01:21:07;;;;;;;3.33;3.13;;;;;;;-0.06;63.78;146051.75;5094217;28;20558;-56
2024/01/13 01:23:34;;;;;;;3.23;2.87;;;;;;;-0.07;62.97;146050.47;5093858;28;20180;-57
2024/01/13 01:26:01;;;;;;;3.33;3.20;;;;;;;0.09;63.11;146088.03;5094127;28;20192;-54
2024/01/13 01:28:28;;;;;;;2.67;2.47;;;;;;;0.00;63.72;146068.00;5093751;28;20237;-54
2024/01/13 01:30:57;;;;;;;2.63;2.43;;;;;;;0.03;66.06;146074.28;5093457;28;20638;-56
2024/01/13 01:33:24;;;;;;;2.83;2.67;;;;;;;-0.06;65.91;146051.75;5093904;28;20253;-56
2024/01/13 01:35:51;;;;;;;2.47;2.27;;;;;;;0.01;66.23;146069.25;5093899;28;20634;-55
2024/01/13 01:38:18;;;;;;;2.87;2.53;;;;;;;0.13;66.46;146098.09;5093585;28;20180;-54
2024/01/13 01:40:49;;;;;;;2.80;2.70;;;;;;;0.19;66.50;146114.38;5093565;28;20180;-55
2024/01/13 01:43:16;;;;;;;2.30;2.20;;;;;;;0.16;66.99;146106.88;5093756;28;20176;-56
2024/01/13 01:45:43;;;;;;;2.30;2.20;;;;;;;0.09;66.62;146089.31;5093437;28;20188;-56
2024/01/13 01:48:11;;;;;;;1.70;1.60;;;;;;;0.13;65.45;146099.31;5093719;28;20214;-56
2024/01/13 01:50:38;;;;;;;2.17;1.97;;;;;;;0.16;65.52;146106.88;5093352;28;20237;-56
2024/01/13 01:53:05;;;;;;;2.00;1.90;;;;;;;0.18;65.74;146111.84;5093486;28;20200;-56
2024/01/13 01:55:33;;;;;;;2.70;1.80;;;;;;;0.20;64.82;146116.88;5093242;28;20590;-57
2024/01/13 01:58:02;;;;;;;3.23;2.30;;;;;;;0.19;65.62;146113.13;5093493;28;20595;-54
2024/01/13 02:00:29;;;;;;;2.13;2.03;;;;;;;0.34;65.75;146151.94;5093460;28;20604;-56
2024/01/13 02:02:57;;;;;;;2.67;2.57;;;;;;;0.36;67.04;146155.72;5093068;28;20184;-57
2024/01/13 02:05:26;;;;;;;2.27;2.17;;;;;;;0.38;66.54;146161.97;5092995;28;20188;-57
2024/01/13 02:07:54;;;;;;;2.30;2.20;;;;;;;0.34;67.21;146151.94;5092938;28;20188;-55
2024/01/13 02:10:22;;;;;;;2.57;2.47;;;;;;;0.37;67.20;146158.25;5093178;28;20293;-56
2024/01/13 02:12:49;;;;;;;3.00;2.37;;;;;;;0.36;66.66;146156.97;5092831;28;20207;-57
2024/01/13 02:15:16;;;;;;;2.60;2.23;;;;;;;0.29;66.65;146138.19;5092772;28;20249;-57
2024/01/13 02:17:44;;;;;;;2.10;2.00;;;;;;;0.19;66.58;146114.38;5093044;28;20283;-57
2024/01/13 02:20:12;;;;;;;2.53;2.33;;;;;;;0.14;67.03;146101.84;5092738;28;20222;-57
2024/01/13 02:22:40;;;;;;;2.37;2.27;;;;;;;0.06;66.28;146081.78;5092719;28;20185;-55
2024/01/13 02:25:10;;;;;;;1.97;1.87;;;;;;;-0.07;65.48;146050.47;5092879;28;20215;-56
2024/01/13 02:27:37;;;;;;;2.50;2.40;;;;;;;-0.09;65.25;146044.25;5092961;28;20232;-55
2024/01/13 02:30:04;;;;;;;3.30;2.83;;;;;;;-0.13;64.26;146034.22;5092544;28;20233;-54
2024/01/13 02:32:31;;;;;;;2.47;2.37;;;;;;;-0.19;65.10;146019.16;5092516;28;20204;-55
2024/01/13 02:34:58;;;;;;;3.57;3.37;;;;;;;-0.15;64.59;146029.19;5092473;28;20185;-55
2024/01/13 02:37:25;;;;;;;3.10;3.00;;;;;;;-0.21;64.87;146015.41;5092758;28;20238;-55
2024/01/13 02:39:54;;;;;;;4.00;3.80;;;;;;;-0.22;65.05;146011.66;5092684;28;20608;-57
2024/01/13 02:42:21;;;;;;;4.07;3.67;;;;;;;-0.15;65.69;146030.44;5092670;28;20184;-57
2024/01/13 02:44:48;;;;;;;11.33;3.90;;;;;;;-0.26;67.47;146001.66;5092595;28;20192;-56
2024/01/13 02:47:15;;;;;;;5.23;4.83;;;;;;;-0.27;69.07;145999.13;5092572;28;20242;-54
2024/01/13 02:49:42;;;;;;;4.53;4.10;;;;;;;-0.30;69.94;145991.63;5092225;28;20249;-55
2024/01/13 02:52:09;;;;;;;5.40;3.20;;;;;;;-0.36;71.38;145977.84;5092422;28;20631;-55
2024/01/13 02:54:36;;;;;;;4.33;3.20;;;;;;;-0.38;72.99;145972.81;5091982;28;20232;-57
2024/01/13 02:57:05;;;;;;;4.83;3.30;;;;;;;-0.46;72.41;145952.78;5092349;28;20676;-56
2024/01/13 02:59:32;;;;;;;3.67;3.30;;;;;;;-0.38;72.90;145971.59;5092143;28;20241;-54
2024/01/13 03:01:59;;;;;;;2.93;2.83;;;;;;;-0.29;73.06;145995.38;5092074;28;20184;-55
2024/01/13 03:04:26;;;;;;;3.17;3.03;;;;;;;-0.28;73.48;145996.63;5092324;28;20627;-55
2024/01/13 03:06:53;;;;;;;8.93;3.33;;;;;;;-0.33;73.67;145984.09;5091926;28;20188;-56
2024/01/13 03:09:20;;;;;;;3.90;3.40;;;;;;;-0.32;74.40;145986.59;5091875;28;20184;-54
2024/01/13 03:11:48;;;;;;;3.57;3.27;;;;;;;-0.32;73.95;145986.59;5092017;28;20188;-55
2024/01/13 03:14:16;;;;;;;3.10;2.83;;;;;;;-0.44;75.19;145956.56;5091873;28;20261;-56
2024/01/13 03:16:43;;;;;;;2.87;2.77;;;;;;;-0.29;76.98;145994.09;5092169;28;20192;-56
2024/01/13 03:19:10;;;;;;;3.80;2.50;;;;;;;-0.30;79.43;145991.63;5091838;28;20184;-57
2024/01/13 03:21:37;;;;;;;2.57;2.47;;;;;;;-0.37;82.97;145975.31;5091864;28;20199;-55
2024/01/13 03:24:05;;;;;;;9.73;2.90;;;;;;;-0.37;84.78;145974.06;5091781;28;20180;-56
2024/01/13 03:26:32;;;;;;;2.70;2.60;;;;;;;-0.29;85.27;145995.38;5092221;28;20250;-55
2024/01/13 03:28:59;;;;;;;2.67;2.57;;;;;;;-0.31;86.25;145989.13;5091818;28;20237;-56
2024/01/13 03:31:28;;;;;;;3.07;2.97;;;;;;;-0.54;89.31;145934.00;5091754;28;20184;-57
2024/01/13 03:33:55;;;;;;;4.43;4.23;;;;;;;-0.46;91.98;145952.78;5091678;28;20212;-55
2024/01/13 03:36:22;;;;;;;5.00;4.70;;;;;;;-0.33;92.22;145984.09;5091815;28;20608;-56
2024/01/13 03:38:49;;;;;;;4.97;4.67;;;;;;;-0.37;93.34;145974.06;5091645;28;20184;-56
2024/01/13 03:41:19;;;;;;;6.87;6.40;;;;;;;-0.57;95.47;145925.25;5091885;28;20695;-57
2024/01/13 03:43:46;;;;;;;5.63;5.27;;;;;;;-0.43;96.75;145959.06;5091525;28;20180;-56
2024/01/13 03:46:14;;;;;;;25.73;15.43;;;;;;;-0.30;94.83;145992.91;5091587;28;20184;-56
2024/01/13 03:48:42;;;;;;;11.27;10.37;;;;;;;-0.57;95.32;145925.25;5091883;28;20608;-57
2024/01/13 03:51:10;;;;;;;7.03;6.53;;;;;;;-0.47;95.56;145950.31;5091674;28;20631;-55
2024/01/13 03:53:37;;;;;;;7.93;4.63;;;;;;;-0.40;96.51;145966.56;5091133;28;20204;-57
2024/01/13 03:56:05;;;;;;;4.53;4.30;;;;;;;-0.35;92.77;145979.09;5094589;28;20774;-55
2024/01/13 03:58:32;;;;;;;5.40;3.30;;;;;;;-0.54;92.66;145934.00;5095608;28;20338;-57
2024/01/13 04:00:59;;;;;;;3.57;3.27;;;;;;;-0.40;92.39;145966.56;5095375;28;20184;-55
2024/01/13 04:03:26;;;;;;;3.80;3.60;;;;;;;-0.57;94.87;145925.25;5095293;28;20266;-55
2024/01/13 04:05:54;;;;;;;2.70;2.60;;;;;;;-0.48;94.33;145949.06;5095255;28;20210;-56
2024/01/13 04:08:22;;;;;;;3.23;2.83;;;;;;;-0.50;93.02;145942.78;5095090;28;20249;-55
2024/01/13 04:10:49;;;;;;;3.00;2.80;;;;;;;-0.71;93.18;145890.19;5095443;28;20639;-56
2024/01/13 04:13:16;;;;;;;3.27;3.07;;;;;;;-0.55;91.96;145931.50;5095104;28;20257;-57
2024/01/13 04:15:43;;;;;;;3.20;3.00;;;;;;;-0.53;92.24;145936.53;5095180;28;20187;-54
2024/01/13 04:18:10;;;;;;;2.97;2.77;;;;;;;-0.49;90.69;145946.53;5095047;28;20212;-55
2024/01/13 04:20:37;;;;;;;4.10;2.93;;;;;;;-0.41;89.20;145964.06;5095319;28;20184;-55
2024/01/13 04:23:06;;;;;;;3.17;2.83;;;;;;;-0.47;91.29;145950.31;5095333;28;20615;-55
2024/01/13 04:25:33;;;;;;;5.67;2.90;;;;;;;-0.43;91.81;145959.06;5094993;28;20257;-57
2024/01/13 04:28:01;;;;;;;3.90;3.10;;;;;;;-0.44;89.86;145956.56;5095126;28;20651;-56
2024/01/13 04:30:28;;;;;;;3.10;3.00;;;;;;;-0.50;90.36;145944.03;5095139;28;20661;-56
2024/01/13 04:32:57;;;;;;;4.10;3.80;;;;;;;-0.25;88.78;146004.13;5094983;28;20686;-57
2024/01/13 04:35:24;;;;;;;3.50;3.30;;;;;;;-0.19;85.90;146020.44;5094691;28;20188;-57
2024/01/13 04:37:51;;;;;;;3.63;3.40;;;;;;;-0.23;84.31;146009.16;5094735;28;20238;-56
2024/01/13 04:40:19;;;;;;;4.50;4.30;;;;;;;-0.11;84.64;146040.47;5094613;28;20200;-56
2024/01/13 04:42:46;;;;;;;4.17;3.97;;;;;;;-0.17;84.13;146025.41;5094807;28;20192;-56
2024/01/13 04:45:14;;;;;;;3.93;3.73;;;;;;;0.13;83.26;146099.31;5094781;28;20608;-56
2024/01/13 04:47:41;;;;;;;3.90;3.63;;;;;;;0.20;81.56;146115.63;5094672;28;20574;-57
2024/01/13 04:50:09;;;;;;;4.53;4.33;;;;;;;-0.07;81.47;146050.47;5094407;28;20191;-56
2024/01/13 04:52:37;;;;;;;6.53;3.67;;;;;;;-0.20;82.53;146016.66;5094790;28;20257;-56
2024/01/13 04:55:05;;;;;;;4.30;4.10;;;;;;;-0.13;82.52;146034.22;5093995;28;20231;-56
2024/01/13 04:57:33;;;;;;;10.17;3.57;;;;;;;-0.20;82.56;146016.66;5094368;28;20336;-56
2024/01/13 05:00:00;;;;;;;3.47;3.27;;;;;;;-0.21;83.45;146014.19;5094345;28;20246;-56
2024/01/13 05:02:27;;;;;;;3.60;3.30;;;;;;;-0.36;85.01;145977.84;5094668;28;20229;-56
2024/01/13 05:04:54;;;;;;;10.63;4.27;;;;;;;-0.41;88.39;145964.06;5094074;28;20188;-56
2024/01/13 05:07:21;;;;;;;12.57;5.03;;;;;;;-0.33;89.28;145984.09;5093118;28;20299;-55
2024/01/13 05:09:49;;;;;;;10.07;5.30;;;;;;;-0.27;88.50;145999.13;5094260;28;20189;-58
2024/01/13 05:12:16;;;;;;;4.80;4.47;;;;;;;-0.24;87.50;146006.63;5094332;28;20242;-56
2024/01/13 05:14:45;;;;;;;6.00;5.50;;;;;;;-0.25;86.39;146005.38;5093926;28;20290;-54
2024/01/13 05:17:12;;;;;;;12.07;6.13;;;;;;;-0.25;84.96;146005.38;5094246;28;20188;-55
2024/01/13 05:19:39;;;;;;;7.37;4.37;;;;;;;-0.37;84.82;145975.31;5094061;28;20718;-55
2024/01/13 05:22:06;;;;;;;5.43;4.30;;;;;;;-0.33;83.07;145984.09;5094038;28;20230;-56
2024/01/13 05:24:33;;;;;;;7.43;4.63;;;;;;;-0.27;82.99;146000.41;5093683;28;20188;-55
2024/01/13 05:27:00;;;;;;;8.87;5.03;;;;;;;-0.31;81.84;145989.13;5094269;28;20665;-57
2024/01/13 05:29:28;;;;;;;8.17;5.90;;;;;;;-0.19;82.78;146019.16;5093598;28;20233;-56
2024/01/13 05:31:56;;;;;;;7.30;5.97;;;;;;;-0.43;83.07;145960.34;5093625;28;20604;-55
2024/01/13 05:34:23;;;;;;;7.07;5.83;;;;;;;-0.50;84.86;145942.78;5093365;28;20289;-55
2024/01/13 05:36:50;;;;;;;7.30;6.60;;;;;;;-0.59;86.09;145920.22;5093795;28;20184;-54
2024/01/13 05:39:17;;;;;;;9.97;6.43;;;;;;;-0.40;86.16;145966.56;5093475;28;20230;-55
2024/01/13 05:41:45;;;;;;;6.93;6.43;;;;;;;-0.52;86.88;145937.78;5093733;28;20634;-56
2024/01/13 05:44:12;;;;;;;8.07;6.07;;;;;;;-0.54;87.64;145934.00;5093289;28;20180;-57
2024/01/13 05:46:39;;;;;;;29.53;7.07;;;;;;;-0.74;90.72;145883.94;5093646;28;20211;-56
2024/01/13 05:49:08;;;;;;;10.07;7.00;;;;;;;-0.72;92.18;145888.94;5093565;28;20631;-57
2024/01/13 05:51:36;;;;;;;6.83;6.33;;;;;;;-0.92;95.95;145838.88;5093212;28;20223;-55
2024/01/13 05:54:03;;;;;;;6.97;6.37;;;;;;;-0.98;96.41;145823.88;5092898;28;20231;-57
2024/01/13 05:56:30;;;;;;;6.17;5.70;;;;;;;-1.11;98.32;145791.34;5093552;28;20184;-57
2024/01/13 05:58:57;;;;;;;6.20;5.60;;;;;;;-1.14;99.24;145783.78;5093991;28;20215;-55
2024/01/13 06:01:25;;;;;;;38.53;7.57;;;;;;;-1.05;100.00;145807.59;5092950;28;20260;-55
2024/01/13 06:03:52;;;;;;;8.20;5.80;;;;;;;-1.11;100.00;145791.34;5092984;28;20271;-56
2024/01/13 06:06:23;;;;;;;10.97;5.13;;;;;;;-1.32;100.00;145738.78;5093185;28;20180;-55
2024/01/13 06:08:50;;;;;;;9.20;5.07;;;;;;;-1.47;100.00;145703.72;5092889;28;20241;-55
2024/01/13 06:11:17;;;;;;;6.70;5.77;;;;;;;-1.74;100.00;145636.16;5093060;28;20229;-56
2024/01/13 06:13:44;;;;;;;6.73;6.23;;;;;;;-1.30;100.00;145745.03;5092723;28;20200;-55
2024/01/13 06:16:13;;;;;;;7.63;6.93;;;;;;;-1.18;100.00;145775.03;5093073;28;20619;-56
2024/01/13 06:18:40;;;;;;;6.93;6.40;;;;;;;-1.05;100.00;145806.31;5092449;28;20195;-55
2024/01/13 06:21:07;;;;;;;8.13;7.33;;;;;;;-1.13;100.00;145787.56;5092924;28;20220;-55
2024/01/13 06:23:35;;;;;;;8.17;7.37;;;;;;;-1.06;100.00;145803.84;5092820;28;20646;-56
2024/01/13 06:26:02;;;;;;;10.87;8.57;;;;;;;-0.93;100.00;145836.34;5092675;28;20208;-55
2024/01/13 06:28:29;;;;;;;12.13;10.17;;;;;;;-0.85;100.00;145856.44;5092775;28;20195;-61
2024/01/13 06:30:56;;;;;;;17.77;11.07;;;;;;;-0.75;100.00;145881.44;5092755;28;20268;-57
2024/01/13 06:33:24;;;;;;;14.87;11.17;;;;;;;-0.77;100.00;145876.44;5092369;28;20191;-56
2024/01/13 06:35:51;;;;;;;18.40;12.23;;;;;;;-0.76;100.00;145878.91;5092671;28;20188;-56
2024/01/13 06:38:18;;;;;;;18.30;12.47;;;;;;;-0.65;100.00;145905.22;5092689;28;20188;-57
2024/01/13 06:40:47;;;;;;;19.33;12.70;;;;;;;-0.31;100.00;145990.38;5092631;28;20203;-57
2024/01/13 06:43:14;;;;;;;25.73;13.93;;;;;;;0.12;100.00;146096.84;5092280;28;20192;-56
2024/01/13 06:45:41;;;;;;;23.07;13.13;;;;;;;0.23;100.00;146124.41;5092565;28;20264;-56
2024/01/13 06:48:08;;;;;;;20.47;14.20;;;;;;;0.41;100.00;146168.25;5092331;28;20184;-56
2024/01/13 06:50:35;;;;;;;31.73;14.20;;;;;;;0.60;100.00;146214.59;5092237;28;20192;-56
2024/01/13 06:53:02;;;;;;;24.17;13.77;;;;;;;0.85;100.00;146277.28;5092446;28;20609;-56
2024/01/13 06:55:29;;;;;;;19.03;12.90;;;;;;;0.97;100.00;146306.13;5091906;28;20231;-56
2024/01/13 06:57:57;;;;;;;30.57;15.47;;;;;;;1.16;100.00;146355.03;5092220;28;20260;-56
2024/01/13 07:00:25;;;;;;;25.27;14.33;;;;;;;1.54;100.00;146449.09;5092195;28;20191;-56
2024/01/13 07:02:52;;;;;;;26.63;16.33;;;;;;;1.60;100.00;146462.91;5092090;28;20188;-57
2024/01/13 07:05:19;;;;;;;37.07;17.73;;;;;;;1.61;100.00;146465.41;5091959;28;20188;-58
2024/01/13 07:07:46;;;;;;;33.70;18.47;;;;;;;1.66;100.00;146477.94;5092285;28;20644;-56
2024/01/13 07:10:13;;;;;;;32.53;18.70;;;;;;;1.85;100.00;146525.63;5092131;28;20210;-58
2024/01/13 07:12:40;;;;;;;31.13;17.73;;;;;;;1.88;100.00;146533.13;5091815;28;20184;-57
2024/01/13 07:15:10;;;;;;;29.03;17.33;;;;;;;1.90;100.00;146536.94;5092112;28;20735;-58
2024/01/13 07:17:37;;;;;;;39.30;18.50;;;;;;;2.13;100.00;146595.88;5091764;28;20257;-56
2024/01/13 07:20:05;;;;;;;32.80;18.67;;;;;;;2.52;100.00;146691.28;5091713;28;20223;-58
2024/01/13 07:22:34;;;;;;;38.67;18.63;;;;;;;3.16;100.00;146852.06;5091772;28;20184;-56
2024/01/13 07:25:01;;;;;;;32.77;18.63;;;;;;;3.66;100.00;146975.16;5091968;28;20181;-56
2024/01/13 07:27:28;;;;;;;35.33;18.80;;;;;;;4.04;100.00;147070.69;5092034;28;20650;-57
2024/01/13 07:29:55;;;;;;;36.07;19.83;;;;;;;3.65;100.00;146972.66;5091194;28;20214;-55
2024/01/13 07:32:24;;;;;;;32.80;19.90;;;;;;;2.96;100.00;146801.81;5091704;28;20245;-56
2024/01/13 07:34:51;;;;;;;36.53;18.93;;;;;;;2.98;100.00;146806.81;5091568;28;20204;-56
2024/01/13 07:37:18;;;;;;;42.27;21.10;;;;;;;3.09;100.00;146834.47;5091716;28;20184;-56
2024/01/13 07:39:45;;;;;;;35.70;20.30;;;;;;;3.86;100.00;147025.44;5091639;28;20253;-55
2024/01/13 07:42:12;;;;;;;36.67;19.23;;;;;;;4.35;100.00;147146.16;5091925;28;20601;-56
2024/01/13 07:44:42;;;;;;;32.47;19.03;;;;;;;4.81;94.94;147260.59;5091842;28;20184;-56
2024/01/13 07:47:09;;;;;;;35.43;19.37;;;;;;;5.25;90.85;147371.34;5091380;28;20188;-55
2024/01/13 07:49:37;;;;;;;36.97;19.20;;;;;;;5.39;88.03;147405.28;5091498;28;20253;-56
2024/01/13 07:52:07;;;;;;;40.03;19.87;;;;;;;5.89;85.73;147531.25;5091766;28;20655;-57
2024/01/13 07:54:34;;;;;;;32.43;19.97;;;;;;;6.00;83.49;147557.69;5091316;28;20690;-56
2024/01/13 07:57:02;;;;;;;29.13;17.27;;;;;;;6.06;79.63;147572.81;5091691;28;20184;-56
2024/01/13 07:59:29;;;;;;;36.97;18.50;;;;;;;6.17;79.18;147599.25;5091345;28;20184;-56
2024/01/13 08:01:56;;;;;;;29.73;18.13;;;;;;;5.69;77.34;147480.81;5091326;28;20184;-56
2024/01/13 08:04:23;;;;;;;32.70;17.97;;;;;;;6.01;77.35;147560.22;5091693;28;20305;-56
2024/01/13 08:06:52;;;;;;;24.30;15.03;;;;;;;5.96;74.83;147547.59;5091633;28;20192;-55
2024/01/13 08:09:19;;;;;;;38.07;16.60;;;;;;;6.13;74.13;147589.16;5091616;28;20184;-57
2024/01/13 08:11:46;;;;;;;43.70;16.93;;;;;;;5.77;74.47;147500.94;5091289;28;20189;-56
2024/01/13 08:14:16;;;;;;;37.87;17.17;;;;;;;5.76;74.61;147497.22;5091118;28;20214;-56
2024/01/13 08:16:43;;;;;;;30.03;16.80;;;;;;;5.86;74.70;147523.66;5091221;28;20195;-56
2024/01/13 08:19:11;;;;;;;30.93;16.87;;;;;;;6.36;72.49;147648.41;5091450;28;20649;-55
2024/01/13 08:21:38;;;;;;;39.87;15.77;;;;;;;6.21;71.94;147610.56;5091157;28;20191;-56
2024/01/13 08:24:08;;;;;;;26.17;14.97;;;;;;;5.68;72.99;147478.34;5091169;28;20184;-56
2024/01/13 08:26:36;;;;;;;37.03;16.13;;;;;;;5.92;73.01;147538.81;5091600;28;20599;-56
2024/01/13 08:29:03;;;;;;;40.63;16.40;;;;;;;5.85;71.82;147521.13;5091121;28;20606;-56
2024/01/13 08:31:30;;;;;;;34.77;15.87;;;;;;;6.47;71.55;147674.81;5091418;28;20632;-56
2024/01/13 08:33:57;;;;;;;40.13;17.10;;;;;;;6.45;70.90;147668.53;5091404;28;20638;-56
2024/01/13 08:36:24;;;;;;;41.83;16.93;;;;;;;6.85;68.56;147770.59;5091008;28;20233;-56
2024/01/13 08:38:51;;;;;;;29.13;16.13;;;;;;;6.69;69.23;147729.00;5091398;28;20612;-57
2024/01/13 08:41:20;;;;;;;25.20;16.03;;;;;;;7.09;66.87;147829.78;5092815;28;20249;-56
2024/01/13 08:43:48;;;;;;;29.50;16.10;;;;;;;7.48;65.24;147926.88;5094872;28;20612;-56
2024/01/13 08:46:15;;;;;;;23.40;15.30;;;;;;;7.17;67.42;147849.97;5094445;28;20223;-56
2024/01/13 08:48:42;;;;;;;35.37;16.20;;;;;;;7.46;65.44;147921.84;5094739;28;20271;-54
2024/01/13 08:51:09;;;;;;;24.60;15.53;;;;;;;6.91;66.10;147783.19;5094594;28;20195;-56
2024/01/13 08:53:36;;;;;;;24.90;16.13;;;;;;;7.03;66.02;147813.44;5094477;28;20223;-55
2024/01/13 08:56:04;;;;;;;29.80;16.57;;;;;;;6.74;66.65;147742.88;5094072;28;20293;-56
2024/01/13 08:58:32;;;;;;;31.17;16.90;;;;;;;6.81;67.60;147759.25;5094702;28;20237;-55
2024/01/13 09:00:59;;;;;;;32.20;16.87;;;;;;;7.19;66.80;147853.75;5094380;28;20199;-57
2024/01/13 09:03:28;;;;;;;23.37;15.53;;;;;;;7.27;66.36;147875.19;5094843;28;20539;-55
2024/01/13 09:05:55;;;;;;;23.97;15.33;;;;;;;7.59;66.05;147953.38;5094495;28;20676;-57
2024/01/13 09:08:23;;;;;;;23.77;15.10;;;;;;;8.21;64.17;148109.75;5094409;28;20188;-56
2024/01/13 09:10:50;;;;;;;28.93;16.73;;;;;;;8.56;63.39;148196.88;5094020;28;20184;-56
2024/01/13 09:13:17;;;;;;;27.13;16.00;;;;;;;8.56;62.30;148196.88;5094001;28;20557;-56
2024/01/13 09:15:47;;;;;;;25.83;16.37;;;;;;;8.69;62.01;148229.72;5093827;28;20220;-55
2024/01/13 09:18:14;;;;;;;23.37;15.30;;;;;;;8.64;60.38;148217.06;5094136;28;20196;-58
2024/01/13 09:20:41;;;;;;;28.27;15.87;;;;;;;7.73;62.16;147988.66;5093977;28;20620;-56
2024/01/13 09:23:08;;;;;;;27.10;14.83;;;;;;;8.33;60.74;148138.81;5094209;28;20551;-56
2024/01/13 09:25:35;;;;;;;19.20;15.03;;;;;;;8.33;60.93;148138.81;5093933;28;20662;-55
2024/01/13 09:28:02;;;;;;;22.73;15.73;;;;;;;8.31;61.01;148133.81;5094030;28;20627;-56
2024/01/13 09:30:29;;;;;;;21.53;15.13;;;;;;;8.56;60.79;148196.88;5093760;28;20216;-56
2024/01/13 09:32:58;;;;;;;22.70;14.73;;;;;;;8.47;59.92;148172.91;5094043;28;20192;-56
2024/01/13 09:35:25;;;;;;;23.70;15.33;;;;;;;8.96;60.00;148295.31;5094089;28;20204;-56
2024/01/13 09:37:52;;;;;;;20.73;15.20;;;;;;;9.00;59.33;148305.41;5093637;28;20181;-56
2024/01/13 09:40:19;;;;;;;22.13;15.17;;;;;;;9.24;58.33;148366.03;5093537;28;20184;-56
2024/01/13 09:42:51;;;;;;;23.53;16.50;;;;;;;9.00;59.38;148305.41;5093403;28;20261;-58
2024/01/13 09:45:20;;;;;;;16.47;14.60;;;;;;;9.39;58.83;148403.91;5093665;28;20555;-55
2024/01/13 09:47:47;;;;;;;21.33;15.67;;;;;;;9.17;57.54;148348.31;5093699;28;20554;-56
2024/01/13 09:50:16;;;;;;;21.53;15.30;;;;;;;9.10;59.21;148330.66;5093455;28;20185;-56
2024/01/13 09:52:46;;;;;;;21.97;14.63;;;;;;;8.83;58.73;148263.75;5092887;28;20184;-56
2024/01/13 09:55:16;;;;;;;24.73;15.67;;;;;;;8.52;58.61;148185.53;5093051;28;20227;-55
2024/01/13 09:57:43;;;;;;;22.67;15.03;;;;;;;8.86;58.71;148270.09;5093251;28;20188;-56
2024/01/13 10:00:12;;;;;;;21.33;15.87;;;;;;;9.30;58.30;148381.16;5093441;28;20759;-55
2024/01/13 10:02:40;;;;;;;20.57;15.83;;;;;;;9.54;57.79;148441.81;5093392;28;20727;-56
2024/01/13 10:05:09;;;;;;;23.40;16.40;;;;;;;9.19;58.16;148353.41;5092966;28;20184;-56
2024/01/13 10:07:43;;;;;;;29.67;16.27;;;;;;;9.43;57.79;148414.00;5092936;28;20261;-56
2024/01/13 10:10:10;;;;;;;25.40;16.73;;;;;;;9.26;57.79;148371.06;5093296;28;20180;-56
2024/01/13 10:12:39;;;;;;;23.80;15.50;;;;;;;9.18;57.41;148352.13;5092869;28;20184;-56
2024/01/13 10:15:13;;;;;;;26.83;14.80;;;;;;;9.22;57.17;148360.97;5092886;28;20314;-56
2024/01/13 10:17:41;;;;;;;32.07;16.37;;;;;;;9.16;57.98;148347.06;5092811;28;20184;-56
2024/01/13 10:20:13;;;;;;;28.33;16.27;;;;;;;9.52;57.85;148436.72;5092697;28;20222;-56
2024/01/13 10:22:42;;;;;;;24.73;15.80;;;;;;;9.38;57.44;148401.34;5092929;28;20206;-56
2024/01/13 10:25:10;;;;;;;18.33;15.30;;;;;;;9.64;56.77;148465.78;5092667;28;20181;-58
2024/01/13 10:27:38;;;;;;;26.77;17.03;;;;;;;10.27;55.82;148623.75;5092558;28;20184;-56
2024/01/13 10:30:07;;;;;;;24.10;16.20;;;;;;;9.83;55.99;148513.81;5093018;28;20180;-56
2024/01/13 10:32:35;;;;;;;24.80;16.07;;;;;;;9.43;56.02;148414.00;5092539;28;20214;-56
2024/01/13 10:35:02;;;;;;;19.77;15.63;;;;;;;9.61;56.10;148458.22;5092680;28;20204;-55
2024/01/13 10:37:30;;;;;;;28.80;16.80;;;;;;;9.24;57.20;148364.78;5092446;28;20188;-57
2024/01/13 10:39:59;;;;;;;21.43;15.33;;;;;;;9.58;56.77;148451.91;5092473;28;20217;-55
2024/01/13 10:42:32;;;;;;;19.13;15.13;;;;;;;9.60;56.42;148456.94;5092661;28;20188;-56
2024/01/13 10:45:01;;;;;;;22.97;15.43;;;;;;;9.26;56.75;148369.78;5092303;28;20181;-56
2024/01/13 10:47:32;;;;;;;21.10;15.70;;;;;;;9.52;57.12;148436.72;5092584;28;20626;-55
2024/01/13 10:49:59;;;;;;;26.37;16.20;;;;;;;10.07;55.71;148573.16;5092488;28;20657;-56
2024/01/13 10:52:33;;;;;;;23.33;15.40;;;;;;;9.41;56.15;148407.72;5092233;28;20362;-54
2024/01/13 10:55:04;;;;;;;18.80;15.73;;;;;;;10.46;55.01;148671.78;5091939;28;20297;-55
2024/01/13 10:57:33;;;;;;;22.43;15.70;;;;;;;10.75;54.66;148743.84;5092208;28;20184;-56
2024/01/13 11:00:02;;;;;;;22.20;15.73;;;;;;;10.38;54.87;148651.56;5092164;28;20275;-55
2024/01/13 11:02:32;;;;;;;21.33;16.20;;;;;;;10.92;53.86;148785.56;5092045;28;20192;-56
2024/01/13 11:05:00;;;;;;;25.50;15.87;;;;;;;10.80;53.75;148755.22;5091060;28;20210;-56
2024/01/13 11:07:28;;;;;;;21.07;15.70;;;;;;;10.80;53.96;148755.22;5091883;28;20239;-56
2024/01/13 11:09:56;;;;;;;19.93;16.23;;;;;;;10.14;54.47;148590.88;5092011;28;20194;-56
2024/01/13 11:12:31;;;;;;;22.70;16.20;;;;;;;10.18;54.60;148601.03;5092130;28;20196;-55
2024/01/13 11:15:05;;;;;;;23.67;16.20;;;;;;;9.78;54.79;148499.88;5091737;28;20180;-55
2024/01/13 11:17:34;;;;;;;18.87;15.27;;;;;;;10.34;54.93;148640.19;5092245;28;20188;-55
2024/01/13 11:20:02;;;;;;;30.93;17.17;;;;;;;10.93;54.98;148788.09;5091758;28;20257;-57
2024/01/13 11:22:36;;;;;;;22.30;16.30;;;;;;;10.97;53.99;148798.22;5091748;28;20184;-56